Time;durP1;ratioP1;P1;durP2;ratioP2;P2;SDS_P1;SDS_P2;PMS_P1;PMS_P2;Temp;Humidity;BMP_temperature;BMP_pressure;BME280_temperature;BME280_humidity;BME280_pressure;Samples;Min_cycle;Max_cycle;Signal;HPM_P1;HPM_P2
2022/03/13 00:01:34;;;;;;;1.67;1.58;;;;;;;12.02;46.77;101033.03;5174766;28;20092;-84
2022/03/13 00:04:05;;;;;;;1.00;1.00;;;;;;;11.93;46.93;101027.09;5155354;28;20477;-84
2022/03/13 00:06:37;;;;;;;1.95;1.80;;;;;;;11.96;46.91;101034.88;5143610;28;20033;-85
2022/03/13 00:09:12;;;;;;;1.30;1.17;;;;;;;12.00;46.51;101034.84;5156979;28;20053;-85
2022/03/13 00:11:43;;;;;;;2.90;2.58;;;;;;;12.02;46.60;101028.63;5155641;28;20026;-85
2022/03/13 00:14:14;;;;;;;1.67;1.58;;;;;;;11.99;46.50;101027.84;5174252;28;20553;-85
2022/03/13 00:16:45;;;;;;;1.75;1.50;;;;;;;12.06;46.08;101024.13;5176088;28;20037;-84
2022/03/13 00:19:16;;;;;;;3.33;2.58;;;;;;;12.10;46.12;101023.16;5179766;28;20337;-85
2022/03/13 00:21:52;;;;;;;1.02;1.02;;;;;;;12.08;46.56;101024.97;5176423;28;20030;-84
2022/03/13 00:24:23;;;;;;;1.45;1.38;;;;;;;12.05;45.92;101019.78;5165673;28;20046;-85
2022/03/13 00:26:54;;;;;;;1.15;1.15;;;;;;;12.07;46.27;101010.06;5149575;28;20087;-85
2022/03/13 00:29:25;;;;;;;1.83;1.70;;;;;;;11.90;46.18;101007.91;5172894;28;20046;-84
2022/03/13 00:31:56;;;;;;;2.10;1.55;;;;;;;11.75;46.46;101003.94;5162675;28;20036;-84
2022/03/13 00:34:26;;;;;;;0.82;0.82;;;;;;;11.79;45.77;100997.66;5155727;28;20353;-84
2022/03/13 00:36:57;;;;;;;1.60;1.50;;;;;;;11.68;46.68;100994.50;5147283;28;20508;-84
2022/03/13 00:39:27;;;;;;;2.25;2.15;;;;;;;11.53;46.78;100996.59;5170762;28;20181;-84
2022/03/13 00:41:58;;;;;;;4.05;2.78;;;;;;;11.71;46.37;100992.63;5152293;28;20499;-83
2022/03/13 00:44:28;;;;;;;2.63;1.95;;;;;;;11.54;46.60;100994.84;5162881;28;20362;-83
2022/03/13 00:46:59;;;;;;;2.60;2.03;;;;;;;11.03;47.73;100992.59;5178097;28;20040;-83
2022/03/13 00:49:30;;;;;;;6.15;2.78;;;;;;;10.69;48.47;100990.81;5159612;28;20130;-83
2022/03/13 00:52:04;;;;;;;1.65;1.55;;;;;;;10.61;48.90;100989.25;5186157;28;20034;-84
2022/03/13 00:54:34;;;;;;;1.95;1.85;;;;;;;10.91;48.16;100985.03;5163704;28;20046;-84
2022/03/13 00:57:05;;;;;;;2.92;2.72;;;;;;;10.74;48.33;100988.09;5150507;28;20444;-84
2022/03/13 00:59:36;;;;;;;2.03;1.92;;;;;;;10.33;50.08;100985.47;5143707;28;20037;-84
2022/03/13 01:02:06;;;;;;;3.03;2.83;;;;;;;10.07;51.62;100981.63;5150642;28;20030;-84
2022/03/13 01:04:37;;;;;;;1.80;1.70;;;;;;;10.26;50.14;100981.25;5167451;28;20041;-83
2022/03/13 01:07:08;;;;;;;1.05;1.05;;;;;;;10.22;50.70;100969.97;5181135;28;20085;-83
2022/03/13 01:09:42;;;;;;;6.22;2.55;;;;;;;10.24;50.89;100980.41;5154435;28;20034;-85
2022/03/13 01:12:12;;;;;;;;;;;;;;;10.16;50.87;100972.72;5183015;28;20038;-84
2022/03/13 01:14:42;;;;;;;2.63;2.42;;;;;;;10.03;50.88;100979.09;5163052;28;20205;-84
2022/03/13 01:17:16;;;;;;;1.50;1.40;;;;;;;10.08;50.92;100978.13;5183804;28;20553;-85
2022/03/13 01:19:49;;;;;;;1.35;1.25;;;;;;;10.22;50.16;100971.69;5171469;28;20077;-84
2022/03/13 01:22:19;;;;;;;1.90;1.75;;;;;;;10.21;49.66;100972.59;5165139;28;20056;-84
2022/03/13 01:24:51;;;;;;;1.98;1.70;;;;;;;10.52;49.02;100967.56;5176127;28;20030;-84
2022/03/13 01:27:24;;;;;;;2.15;1.25;;;;;;;10.60;48.35;100967.41;5150430;28;20080;-84
2022/03/13 01:29:57;;;;;;;2.22;2.05;;;;;;;10.61;47.96;100958.66;5182323;28;20046;-84
2022/03/13 01:32:30;;;;;;;0.90;0.90;;;;;;;10.63;48.42;100953.34;5163975;28;20121;-82
2022/03/13 01:35:04;;;;;;;1.10;1.10;;;;;;;10.67;48.18;100955.88;5178422;28;20040;-84
2022/03/13 01:37:38;;;;;;;1.73;1.63;;;;;;;10.49;48.06;100956.28;5160522;28;20026;-84
2022/03/13 01:40:10;;;;;;;;;;;;;;;10.52;48.46;100950.97;5202826;28;20076;-84
2022/03/13 01:42:44;;;;;;;1.05;1.02;;;;;;;10.54;47.82;100951.78;5188000;28;19902;-85
2022/03/13 01:45:17;;;;;;;2.15;1.73;;;;;;;10.65;47.63;100951.56;5186047;28;20081;-85
2022/03/13 01:47:50;;;;;;;1.23;1.13;;;;;;;10.66;47.70;100942.78;5189222;28;20030;-85
2022/03/13 01:50:21;;;;;;;1.15;1.15;;;;;;;10.64;48.38;100934.09;5180361;28;20073;-85
2022/03/13 01:52:54;;;;;;;2.05;1.58;;;;;;;10.67;47.99;100940.13;5172336;28;20073;-85
2022/03/13 01:55:24;;;;;;;1.25;1.13;;;;;;;10.63;47.89;100934.97;5166680;28;20069;-86
2022/03/13 01:57:55;;;;;;;1.67;1.58;;;;;;;10.56;48.00;100926.38;5178705;28;20046;-85
2022/03/13 02:00:26;;;;;;;1.58;1.48;;;;;;;10.34;47.79;100932.09;5181432;28;20114;-84
2022/03/13 02:02:57;;;;;;;1.45;1.38;;;;;;;10.48;47.74;100930.94;5199089;28;20037;-84
2022/03/13 02:05:30;;;;;;;2.30;2.13;;;;;;;10.59;47.59;100922.81;5181903;28;20087;-82
2022/03/13 02:08:11;;;;;;;2.35;2.00;;;;;;;10.59;47.51;100923.69;5146860;28;20527;-84
2022/03/13 02:10:42;;;;;;;1.73;1.63;;;;;;;10.55;47.35;100922.03;5182279;28;20030;-83
2022/03/13 02:13:16;;;;;;;2.70;2.20;;;;;;;10.32;47.77;100912.91;5188204;28;20049;-83
2022/03/13 02:15:46;;;;;;;2.33;2.13;;;;;;;10.22;46.95;100914.00;5184203;28;20091;-84
2022/03/13 02:18:17;;;;;;;2.67;2.47;;;;;;;10.33;46.88;100906.78;5169859;28;20053;-83
2022/03/13 02:20:47;;;;;;;6.05;2.05;;;;;;;10.04;46.86;100908.28;5175191;28;20033;-84
2022/03/13 02:23:19;;;;;;;2.20;2.03;;;;;;;10.20;46.18;100903.56;5143950;28;20366;-85
2022/03/13 02:26:01;;;;;;;1.83;1.73;;;;;;;10.13;46.81;100901.97;5161628;28;20502;-84
2022/03/13 02:28:39;;;;;;;0.80;0.80;;;;;;;10.22;46.88;100907.03;5165215;28;20072;-84
2022/03/13 02:31:16;;;;;;;1.88;1.77;;;;;;;10.17;45.78;100897.53;5147858;28;20037;-83
2022/03/13 02:33:46;;;;;;;0.80;0.80;;;;;;;10.14;46.19;100897.59;5163876;28;20164;-84
2022/03/13 02:36:32;;;;;;;1.15;1.15;;;;;;;9.87;46.05;100899.94;5152367;28;20121;-83
2022/03/13 02:39:04;;;;;;;1.23;1.13;;;;;;;10.05;45.73;100903.91;5173972;28;20038;-84
2022/03/13 02:41:37;;;;;;;1.00;1.00;;;;;;;10.05;46.23;100901.28;5173952;28;20052;-84
2022/03/13 02:44:10;;;;;;;2.40;1.33;;;;;;;10.11;46.17;100898.53;5179700;28;20518;-84
2022/03/13 02:46:46;;;;;;;2.13;1.92;;;;;;;10.02;46.62;100898.72;5176118;28;20038;-84
2022/03/13 02:49:19;;;;;;;1.67;1.58;;;;;;;10.12;46.26;100896.78;5191160;28;20100;-84
2022/03/13 02:51:53;;;;;;;2.55;1.38;;;;;;;9.86;46.14;100895.59;5168284;28;20029;-84
2022/03/13 02:54:29;;;;;;;1.77;1.45;;;;;;;10.01;46.35;100897.88;5170111;28;20051;-84
2022/03/13 02:57:03;;;;;;;0.93;0.93;;;;;;;9.92;45.96;100896.31;5179413;28;20037;-84
2022/03/13 02:59:34;;;;;;;1.88;1.65;;;;;;;9.90;45.45;100895.50;5174457;28;20495;-84
2022/03/13 03:02:04;;;;;;;1.33;1.25;;;;;;;9.85;45.44;100896.47;5179133;28;20090;-84
2022/03/13 03:04:35;;;;;;;3.50;1.73;;;;;;;9.59;45.33;100896.09;5166821;28;20498;-84
2022/03/13 03:07:06;;;;;;;2.58;2.38;;;;;;;9.84;45.71;100889.50;5167686;28;20038;-84
2022/03/13 03:09:37;;;;;;;1.15;1.15;;;;;;;9.77;45.09;100892.28;5181677;28;20703;-84
2022/03/13 03:12:08;;;;;;;1.45;1.35;;;;;;;9.74;45.01;100888.84;5193583;28;20457;-84
2022/03/13 03:14:39;;;;;;;1.42;1.33;;;;;;;9.83;45.12;100883.41;5184024;28;20105;-84
2022/03/13 03:17:09;;;;;;;1.77;1.35;;;;;;;9.74;44.70;100884.47;5187965;28;20537;-84
2022/03/13 03:19:45;;;;;;;1.30;1.10;;;;;;;9.80;44.28;100874.72;5175091;28;20541;-84
2022/03/13 03:22:16;;;;;;;1.55;1.45;;;;;;;9.59;42.87;100869.06;5160435;28;20081;-84
2022/03/13 03:24:48;;;;;;;1.95;1.77;;;;;;;9.71;43.92;100875.81;5159104;28;20038;-84
2022/03/13 03:27:20;;;;;;;0.93;0.93;;;;;;;9.49;43.79;100867.53;5178687;28;20148;-84
2022/03/13 03:29:50;;;;;;;2.10;1.70;;;;;;;9.35;42.26;100881.75;5160518;28;20065;-84
2022/03/13 03:32:21;;;;;;;1.05;0.93;;;;;;;9.37;43.02;100880.00;5178106;28;20038;-85
2022/03/13 03:34:51;;;;;;;0.52;0.52;;;;;;;9.43;43.47;100884.22;5166616;28;20041;-85
2022/03/13 03:37:22;;;;;;;1.50;1.40;;;;;;;9.53;43.80;100877.06;5168250;28;20200;-83
2022/03/13 03:39:52;;;;;;;3.20;2.15;;;;;;;9.52;43.95;100889.28;5148400;28;20049;-83
2022/03/13 03:42:23;;;;;;;0.98;0.98;;;;;;;9.61;43.82;100886.47;5147310;28;20036;-84
2022/03/13 03:44:53;;;;;;;0.98;0.98;;;;;;;9.46;43.77;100886.78;5152624;28;20033;-83
2022/03/13 03:47:24;;;;;;;1.10;1.10;;;;;;;9.58;43.38;100883.06;5170356;28;20033;-84
2022/03/13 03:49:54;;;;;;;1.55;1.13;;;;;;;9.54;42.49;100865.69;5186976;28;20341;-85
2022/03/13 03:52:25;;;;;;;0.60;0.60;;;;;;;9.57;43.06;100870.84;5187269;28;20069;-83
2022/03/13 03:54:55;;;;;;;1.75;1.65;;;;;;;9.30;42.14;100862.63;5185013;28;20065;-84
2022/03/13 03:57:25;;;;;;;0.70;0.70;;;;;;;9.41;43.57;100857.22;5182112;28;20034;-83
2022/03/13 03:59:56;;;;;;;0.82;0.82;;;;;;;9.24;42.84;100852.28;5204381;28;20614;-84
2022/03/13 04:02:29;;;;;;;14.82;2.17;;;;;;;9.43;43.44;100861.53;5192364;28;20033;-83
2022/03/13 04:05:01;;;;;;;1.83;1.70;;;;;;;9.39;42.88;100859.84;5172478;28;20030;-84
2022/03/13 04:07:31;;;;;;;1.05;1.00;;;;;;;9.47;43.18;100859.69;5182896;28;20037;-84
2022/03/13 04:10:06;;;;;;;2.00;1.85;;;;;;;9.53;43.06;100859.56;5168224;28;20038;-84
2022/03/13 04:12:39;;;;;;;4.50;1.60;;;;;;;9.48;43.12;100873.66;5174597;28;20034;-83
2022/03/13 04:15:10;;;;;;;0.75;0.73;;;;;;;9.21;42.51;100874.16;5161934;28;20435;-83
2022/03/13 04:17:40;;;;;;;0.75;0.75;;;;;;;9.40;43.51;100879.91;5163791;28;20088;-83
2022/03/13 04:20:11;;;;;;;2.47;1.58;;;;;;;9.44;41.95;100881.59;5166938;28;20037;-83
2022/03/13 04:22:41;;;;;;;1.98;1.83;;;;;;;9.48;43.65;100871.91;5166338;28;20025;-83
2022/03/13 04:25:12;;;;;;;1.00;1.00;;;;;;;9.51;43.08;100869.22;5163975;28;20034;-83
2022/03/13 04:27:44;;;;;;;1.02;1.02;;;;;;;9.63;43.85;100869.88;5163901;28;21425;-83
2022/03/13 04:30:14;;;;;;;2.03;1.85;;;;;;;9.53;42.91;100858.72;5159174;28;20034;-84
2022/03/13 04:32:47;;;;;;;1.67;1.58;;;;;;;9.57;43.42;100861.25;5178712;28;20053;-84
2022/03/13 04:35:17;;;;;;;1.27;1.25;;;;;;;9.48;42.59;100865.78;5176350;28;20410;-84
2022/03/13 04:37:48;;;;;;;1.80;1.70;;;;;;;9.53;43.18;100862.19;5163915;28;20221;-84
2022/03/13 04:40:18;;;;;;;1.65;1.55;;;;;;;9.45;42.90;100851.00;5181978;28;20453;-85
2022/03/13 04:42:49;;;;;;;2.38;1.73;;;;;;;9.52;43.43;100851.75;5155931;28;20029;-85
2022/03/13 04:45:19;;;;;;;1.50;1.23;;;;;;;9.53;43.00;100862.19;5165243;28;20033;-85
2022/03/13 04:47:50;;;;;;;0.80;0.80;;;;;;;9.54;43.19;100865.69;5176124;28;20066;-85
2022/03/13 04:50:20;;;;;;;0.93;0.85;;;;;;;9.55;43.29;100862.16;5147999;28;20091;-85
2022/03/13 04:52:51;;;;;;;3.00;1.85;;;;;;;9.44;42.86;100852.78;5177466;28;20324;-85
2022/03/13 04:55:21;;;;;;;1.70;1.60;;;;;;;9.52;42.79;100857.84;5146508;28;20041;-85
2022/03/13 04:57:52;;;;;;;1.00;1.00;;;;;;;9.06;41.65;100854.38;5177222;28;20038;-84
2022/03/13 05:00:27;;;;;;;2.28;2.10;;;;;;;8.87;41.95;100856.47;5160563;28;20062;-85
2022/03/13 05:02:58;;;;;;;1.00;1.00;;;;;;;9.25;42.44;100859.25;5158838;28;20153;-86
2022/03/13 05:05:29;;;;;;;1.02;1.02;;;;;;;9.12;40.69;100856.91;5176236;28;20030;-85
2022/03/13 05:08:00;;;;;;;0.88;0.88;;;;;;;9.27;41.12;100855.72;5163111;28;20034;-85
2022/03/13 05:10:36;;;;;;;1.75;1.65;;;;;;;9.03;40.22;100858.78;5144837;28;20037;-85
2022/03/13 05:13:14;;;;;;;3.30;2.55;;;;;;;9.13;41.46;100855.97;5161214;28;20046;-85
2022/03/13 05:15:46;;;;;;;1.02;1.02;;;;;;;9.06;40.08;100858.75;5178879;28;20116;-85
2022/03/13 05:18:17;;;;;;;0.70;0.60;;;;;;;9.12;41.98;100862.13;5164422;28;20098;-85
2022/03/13 05:20:47;;;;;;;1.63;1.52;;;;;;;9.21;40.27;100860.22;5177933;28;20207;-85
2022/03/13 05:23:18;;;;;;;1.30;1.20;;;;;;;9.03;40.04;100864.03;5184821;28;20418;-84
2022/03/13 05:25:49;;;;;;;1.55;1.45;;;;;;;9.16;41.28;100876.03;5163850;28;20026;-83
2022/03/13 05:28:22;;;;;;;0.77;0.77;;;;;;;9.17;41.67;100883.00;5173913;28;20119;-85
2022/03/13 05:30:56;;;;;;;1.52;1.45;;;;;;;9.27;41.76;100897.59;5172479;28;20137;-84
2022/03/13 05:33:26;;;;;;;0.65;0.65;;;;;;;9.28;42.22;100886.25;5161167;28;20045;-85
2022/03/13 05:35:59;;;;;;;1.35;1.30;;;;;;;9.38;42.00;100879.06;5179068;28;20045;-83
2022/03/13 05:38:29;;;;;;;0.83;0.83;;;;;;;9.29;41.63;100881.88;5176303;28;20060;-82
2022/03/13 05:41:00;;;;;;;1.95;1.80;;;;;;;9.13;39.68;100887.38;5151285;28;20115;-83
2022/03/13 05:43:32;;;;;;;1.50;1.42;;;;;;;9.26;41.34;100885.41;5143802;28;20044;-83
2022/03/13 05:46:02;;;;;;;0.68;0.63;;;;;;;9.19;40.39;100880.34;5174285;28;20129;-83
2022/03/13 05:48:33;;;;;;;2.05;1.55;;;;;;;9.12;39.95;100884.81;5179832;28;20033;-83
2022/03/13 05:51:03;;;;;;;1.00;1.00;;;;;;;9.21;40.95;100891.66;5151682;28;20124;-83
2022/03/13 05:53:34;;;;;;;1.83;1.48;;;;;;;9.25;40.18;100886.31;5183139;28;20297;-83
2022/03/13 05:56:04;;;;;;;1.10;1.00;;;;;;;9.18;41.10;100886.44;5179253;28;20030;-83
2022/03/13 05:58:35;;;;;;;1.90;1.10;;;;;;;9.25;41.03;100883.69;5174198;28;20045;-83
2022/03/13 06:01:06;;;;;;;1.20;1.20;;;;;;;9.32;40.28;100887.03;5178837;28;20034;-84
2022/03/13 06:03:38;;;;;;;1.33;1.30;;;;;;;9.20;41.07;100895.16;5176850;28;20042;-84
2022/03/13 06:06:09;;;;;;;0.85;0.85;;;;;;;9.28;41.25;100890.63;5179176;28;20112;-84
2022/03/13 06:08:43;;;;;;;1.75;1.65;;;;;;;9.08;38.94;100885.78;5161601;28;20057;-83
2022/03/13 06:11:14;;;;;;;0.90;0.90;;;;;;;9.15;41.13;100887.38;5181623;28;20107;-83
2022/03/13 06:13:44;;;;;;;0.90;0.75;;;;;;;9.03;39.01;100884.97;5174108;28;20073;-85
2022/03/13 06:16:15;;;;;;;1.23;1.23;;;;;;;9.14;39.83;100894.34;5161943;28;20152;-85
2022/03/13 06:18:46;;;;;;;0.85;0.85;;;;;;;9.09;39.16;100884.88;5166600;28;20057;-84
2022/03/13 06:21:16;;;;;;;1.35;1.25;;;;;;;9.17;40.60;100880.38;5161732;28;20036;-84
2022/03/13 06:23:47;;;;;;;1.45;1.40;;;;;;;8.98;38.29;100887.66;5177180;28;20403;-84
2022/03/13 06:26:17;;;;;;;3.65;1.85;;;;;;;9.07;39.18;100897.97;5178339;28;20037;-85
2022/03/13 06:28:48;;;;;;;2.50;2.30;;;;;;;9.13;39.18;100892.63;5177726;28;20034;-85
2022/03/13 06:31:18;;;;;;;1.63;1.52;;;;;;;9.11;39.45;100891.81;5168230;28;20489;-84
2022/03/13 06:33:49;;;;;;;1.63;1.52;;;;;;;9.20;39.48;100887.28;5167436;28;20087;-84
2022/03/13 06:36:20;;;;;;;1.38;1.27;;;;;;;9.16;39.45;100888.22;5165159;28;20038;-81
2022/03/13 06:38:50;;;;;;;8.15;1.58;;;;;;;8.77;38.05;100887.16;5179056;28;20985;-81
2022/03/13 06:41:21;;;;;;;2.17;1.98;;;;;;;8.47;39.07;100881.53;5163475;28;20045;-81
2022/03/13 06:43:53;;;;;;;0.43;0.43;;;;;;;8.77;39.82;100892.41;5177025;28;20549;-81
2022/03/13 06:46:23;;;;;;;1.15;1.05;;;;;;;8.72;38.63;100891.59;5182965;28;20104;-82
2022/03/13 06:48:54;;;;;;;0.43;0.43;;;;;;;8.81;38.78;100886.22;5194673;28;20120;-82
2022/03/13 06:51:24;;;;;;;0.77;0.77;;;;;;;8.38;38.95;100892.13;5165527;28;20036;-82
2022/03/13 06:53:55;;;;;;;2.08;0.82;;;;;;;8.43;38.92;100890.28;5184984;28;20030;-82
2022/03/13 06:56:25;;;;;;;0.73;0.73;;;;;;;8.57;39.45;100878.78;5164222;28;20133;-81
2022/03/13 06:59:03;;;;;;;1.52;1.42;;;;;;;8.51;38.80;100892.84;5182342;28;20265;-83
2022/03/13 07:01:37;;;;;;;1.48;1.40;;;;;;;8.54;38.67;100881.47;5187601;28;20563;-81
2022/03/13 07:04:08;;;;;;;1.27;1.27;;;;;;;8.62;39.79;100888.28;5158432;28;20049;-81
2022/03/13 07:06:39;;;;;;;1.33;1.23;;;;;;;8.76;39.43;100887.19;5167243;28;20033;-80
2022/03/13 07:09:10;;;;;;;1.35;1.25;;;;;;;8.73;39.21;100888.09;5185372;28;20048;-80
2022/03/13 07:11:47;;;;;;;2.33;2.13;;;;;;;8.80;39.42;100884.47;5175362;28;20038;-80
2022/03/13 07:14:21;;;;;;;4.68;1.67;;;;;;;8.88;39.89;100891.34;5185658;28;20033;-79
2022/03/13 07:16:51;;;;;;;0.85;0.85;;;;;;;8.69;39.38;100891.66;5184294;28;20289;-80
2022/03/13 07:19:22;;;;;;;2.65;2.42;;;;;;;8.91;39.75;100891.28;5167728;28;20037;-80
2022/03/13 07:21:52;;;;;;;0.98;0.98;;;;;;;8.86;39.82;100890.50;5176001;28;20040;-80
2022/03/13 07:24:23;;;;;;;0.85;0.85;;;;;;;8.71;39.07;100884.66;5166319;28;20065;-80
2022/03/13 07:26:53;;;;;;;1.08;1.02;;;;;;;8.94;39.37;100886.88;5201120;28;20038;-80
2022/03/13 07:29:24;;;;;;;4.03;2.75;;;;;;;8.79;39.78;100888.00;5197995;28;20034;-79
2022/03/13 07:31:56;;;;;;;1.50;1.45;;;;;;;8.92;39.83;100883.44;5181070;28;20035;-80
2022/03/13 07:34:27;;;;;;;0.90;0.90;;;;;;;8.96;39.23;100889.47;5164431;28;20093;-80
2022/03/13 07:36:58;;;;;;;1.65;1.55;;;;;;;8.90;39.23;100889.56;5178429;28;20030;-80
2022/03/13 07:39:35;;;;;;;2.58;2.38;;;;;;;9.00;40.36;100895.50;5175168;28;20081;-80
2022/03/13 07:42:05;;;;;;;3.00;2.70;;;;;;;8.82;39.63;100887.94;5184842;28;20407;-79
2022/03/13 07:44:36;;;;;;;1.83;1.73;;;;;;;8.80;39.60;100879.25;5170263;28;20053;-80
2022/03/13 07:47:06;;;;;;;3.15;1.55;;;;;;;8.94;39.50;100886.00;5174922;28;20034;-79
2022/03/13 07:49:37;;;;;;;2.45;1.85;;;;;;;9.08;39.74;100886.63;5159720;28;20490;-80
2022/03/13 07:52:11;;;;;;;1.40;1.30;;;;;;;9.14;39.90;100886.50;5195489;28;20045;-79
2022/03/13 07:54:42;;;;;;;2.10;1.75;;;;;;;8.98;38.63;100880.69;5136866;28;20305;-79
2022/03/13 07:57:13;;;;;;;0.85;0.77;;;;;;;8.97;39.86;100880.69;5184033;28;20387;-79
2022/03/13 07:59:43;;;;;;;4.88;3.30;;;;;;;9.19;40.01;100890.81;5163849;28;20050;-80
2022/03/13 08:02:14;;;;;;;1.60;1.48;;;;;;;9.20;39.64;100884.69;5185402;28;20034;-79
2022/03/13 08:04:51;;;;;;;1.42;1.33;;;;;;;9.09;39.36;100880.50;5185422;28;20069;-79
2022/03/13 08:07:24;;;;;;;2.88;1.40;;;;;;;9.16;38.89;100883.00;5164396;28;20038;-80
2022/03/13 08:09:55;;;;;;;1.15;1.15;;;;;;;9.17;39.72;100876.88;5182229;28;20061;-81
2022/03/13 08:12:25;;;;;;;1.40;1.30;;;;;;;9.33;39.36;100875.69;5186006;28;20061;-80
2022/03/13 08:14:56;;;;;;;1.55;0.98;;;;;;;9.27;39.04;100878.44;5160943;28;20050;-80
2022/03/13 08:17:27;;;;;;;1.55;1.45;;;;;;;9.33;39.65;100882.69;5172840;28;20149;-79
2022/03/13 08:19:59;;;;;;;0.80;0.80;;;;;;;9.36;39.89;100883.50;5170792;28;20042;-80
2022/03/13 08:22:31;;;;;;;2.03;1.75;;;;;;;9.27;38.96;100879.28;5177482;28;20044;-80
2022/03/13 08:25:01;;;;;;;0.70;0.70;;;;;;;9.38;38.79;100883.44;5177851;28;20490;-80
2022/03/13 08:27:33;;;;;;;1.80;1.60;;;;;;;9.30;39.55;100888.81;5168111;28;20053;-80
2022/03/13 08:30:04;;;;;;;0.73;0.73;;;;;;;9.37;39.51;100885.22;5160387;28;20258;-80
2022/03/13 08:32:39;;;;;;;3.35;1.88;;;;;;;9.42;38.37;100878.13;5166823;28;20033;-81
2022/03/13 08:35:09;;;;;;;1.77;1.67;;;;;;;9.42;39.32;100887.75;5167412;28;20391;-81
2022/03/13 08:37:40;;;;;;;3.97;1.67;;;;;;;9.26;38.29;100881.94;5178677;28;20032;-80
2022/03/13 08:40:11;;;;;;;1.60;1.50;;;;;;;9.68;39.33;100873.25;5164065;28;20105;-80
2022/03/13 08:42:42;;;;;;;1.08;1.08;;;;;;;9.50;38.87;100870.13;5178951;28;20090;-80
2022/03/13 08:45:15;;;;;;;1.33;1.00;;;;;;;9.47;39.32;100877.16;5177434;28;20081;-80
2022/03/13 08:47:47;;;;;;;1.40;1.23;;;;;;;9.38;38.37;100884.31;5144592;28;20446;-79
2022/03/13 08:50:20;;;;;;;2.53;1.05;;;;;;;9.44;38.99;100878.97;5171381;28;20347;-79
2022/03/13 08:52:50;;;;;;;0.97;0.97;;;;;;;9.38;38.00;100873.81;5168866;28;20038;-80
2022/03/13 08:55:22;;;;;;;1.60;1.00;;;;;;;9.43;38.03;100874.63;5190369;28;20376;-79
2022/03/13 08:57:53;;;;;;;2.03;1.92;;;;;;;9.53;38.49;100880.53;5179726;28;20084;-80
2022/03/13 09:00:25;;;;;;;0.47;0.47;;;;;;;9.65;38.35;100868.94;5187329;28;20048;-80
2022/03/13 09:02:55;;;;;;;1.42;1.38;;;;;;;9.80;38.08;100866.88;5164457;28;20037;-80
2022/03/13 09:05:25;;;;;;;3.97;2.42;;;;;;;9.78;38.90;100864.28;5179644;28;20106;-80
2022/03/13 09:07:58;;;;;;;1.13;1.08;;;;;;;9.83;38.42;100866.81;5182124;28;20328;-81
2022/03/13 09:10:28;;;;;;;4.55;1.17;;;;;;;9.85;37.79;100852.78;5169653;28;20532;-80
2022/03/13 09:13:00;;;;;;;1.80;1.67;;;;;;;9.85;37.63;100855.41;5171770;28;20085;-81
2022/03/13 09:15:33;;;;;;;4.78;1.85;;;;;;;9.90;37.67;100850.94;5192261;28;20029;-80
2022/03/13 09:18:05;;;;;;;0.70;0.70;;;;;;;9.99;38.45;100855.09;5165004;28;20038;-81
2022/03/13 09:20:35;;;;;;;2.00;1.60;;;;;;;9.81;37.76;100852.88;5172240;28;20044;-80
2022/03/13 09:23:06;;;;;;;4.25;1.45;;;;;;;9.96;38.51;100851.69;5187541;28;20563;-81
2022/03/13 09:25:37;;;;;;;1.42;1.33;;;;;;;10.10;38.63;100860.09;5151454;28;20439;-81
2022/03/13 09:28:08;;;;;;;0.93;0.93;;;;;;;10.06;38.64;100859.31;5167919;28;20060;-81
2022/03/13 09:30:39;;;;;;;1.35;1.25;;;;;;;9.98;38.36;100863.84;5176174;28;20170;-79
2022/03/13 09:33:12;;;;;;;1.73;1.60;;;;;;;10.12;38.61;100860.06;5175174;28;20059;-81
2022/03/13 09:35:46;;;;;;;0.63;0.63;;;;;;;10.19;39.25;100859.03;5181697;28;20033;-81
2022/03/13 09:38:16;;;;;;;3.88;2.65;;;;;;;10.27;38.30;100859.72;5182257;28;20042;-81
2022/03/13 09:40:47;;;;;;;1.63;1.52;;;;;;;10.25;38.66;100856.25;5173948;28;20026;-80
2022/03/13 09:43:19;;;;;;;2.50;1.50;;;;;;;10.29;38.88;100855.28;5160475;28;20143;-80
2022/03/13 09:45:50;;;;;;;0.95;0.95;;;;;;;10.30;39.11;100851.75;5170071;28;20026;-80
2022/03/13 09:48:21;;;;;;;2.83;2.25;;;;;;;10.45;38.85;100850.56;5159548;28;20510;-79
2022/03/13 09:50:52;;;;;;;1.95;1.13;;;;;;;10.51;39.08;100845.16;5178424;28;20076;-81
2022/03/13 09:53:23;;;;;;;1.35;1.30;;;;;;;10.53;38.77;100850.41;5179866;28;20194;-80
2022/03/13 09:55:53;;;;;;;1.38;1.27;;;;;;;10.64;38.08;100848.34;5175303;28;20041;-80
2022/03/13 09:58:24;;;;;;;1.85;1.75;;;;;;;10.56;38.07;100845.06;5163246;28;20144;-80
2022/03/13 10:00:54;;;;;;;2.92;1.75;;;;;;;10.55;38.88;100840.69;5177051;28;20036;-81
2022/03/13 10:03:25;;;;;;;0.95;0.95;;;;;;;10.60;38.19;100838.84;5167606;28;20398;-81
2022/03/13 10:05:58;;;;;;;1.05;1.05;;;;;;;10.60;37.51;100846.72;5183928;28;20077;-81
2022/03/13 10:08:34;;;;;;;1.35;1.25;;;;;;;10.68;37.94;100844.75;5190502;28;20847;-81
2022/03/13 10:11:07;;;;;;;2.47;2.30;;;;;;;10.75;38.24;100837.56;5181672;28;20040;-81
2022/03/13 10:13:43;;;;;;;2.65;2.45;;;;;;;10.91;38.86;100843.28;5183060;28;20049;-81
2022/03/13 10:16:35;;;;;;;2.83;1.50;;;;;;;10.83;38.23;100840.00;5186142;28;20034;-80
2022/03/13 10:19:16;;;;;;;1.55;1.45;;;;;;;10.89;37.05;100842.47;5184349;28;20394;-80
2022/03/13 10:22:07;;;;;;;1.75;1.65;;;;;;;11.13;37.71;100840.94;5151047;28;20044;-80
2022/03/13 10:24:40;;;;;;;2.38;1.50;;;;;;;11.07;37.88;100840.25;5179525;28;20042;-81
2022/03/13 10:27:16;;;;;;;3.33;1.60;;;;;;;11.14;37.66;100833.91;5189045;28;20091;-80
2022/03/13 10:29:47;;;;;;;1.30;1.23;;;;;;;11.24;37.81;100838.03;5178595;28;20042;-81
2022/03/13 10:32:20;;;;;;;1.00;0.98;;;;;;;11.23;37.91;100831.03;5189358;28;20497;-81
2022/03/13 10:34:56;;;;;;;2.45;2.25;;;;;;;11.20;38.22;100823.22;5185571;28;20049;-80
2022/03/13 10:37:38;;;;;;;1.58;1.20;;;;;;;11.24;38.16;100824.03;5180333;28;20033;-80
2022/03/13 10:40:14;;;;;;;2.95;2.75;;;;;;;11.35;38.85;100829.81;5181706;28;20054;-82
2022/03/13 10:42:46;;;;;;;1.35;1.25;;;;;;;11.37;38.62;100822.78;5180476;28;20032;-81
2022/03/13 10:45:35;;;;;;;1.98;1.60;;;;;;;11.71;38.57;100819.16;5178947;28;20515;-80
2022/03/13 10:48:22;;;;;;;0.85;0.85;;;;;;;11.63;38.67;100806.22;5172884;28;20026;-80
2022/03/13 10:50:54;;;;;;;2.08;1.88;;;;;;;11.55;38.75;100810.84;5183137;28;20045;-80
2022/03/13 10:53:27;;;;;;;2.17;1.83;;;;;;;11.61;39.54;100813.28;5180628;28;20049;-79
2022/03/13 10:56:07;;;;;;;3.33;1.08;;;;;;;11.73;39.24;100804.22;5176766;28;20605;-80
2022/03/13 10:58:45;;;;;;;2.28;2.08;;;;;;;11.76;39.42;100811.13;5178630;28;20177;-79
2022/03/13 11:01:21;;;;;;;1.35;1.25;;;;;;;11.87;38.86;100798.50;5178441;28;20036;-79
2022/03/13 11:03:54;;;;;;;2.50;2.10;;;;;;;11.95;39.23;100806.16;5153133;28;20038;-79
2022/03/13 11:06:31;;;;;;;1.98;1.88;;;;;;;12.03;40.12;100811.19;5186490;28;20092;-80
2022/03/13 11:09:05;;;;;;;1.67;1.58;;;;;;;12.06;39.99;100803.22;5168270;28;20053;-79
2022/03/13 11:11:41;;;;;;;1.58;1.38;;;;;;;12.15;39.80;100797.66;5185415;28;20037;-82
2022/03/13 11:14:15;;;;;;;3.45;2.03;;;;;;;12.25;38.92;100793.81;5147747;28;20045;-79
2022/03/13 11:16:46;;;;;;;1.92;1.83;;;;;;;12.26;38.92;100797.31;5186804;28;20449;-80
2022/03/13 11:19:17;;;;;;;1.98;1.83;;;;;;;12.31;39.88;100791.88;5187827;28;20492;-79
2022/03/13 11:21:48;;;;;;;1.45;1.35;;;;;;;12.38;39.38;100782.88;5182508;28;20125;-79
2022/03/13 11:24:19;;;;;;;1.67;1.58;;;;;;;12.51;39.24;100789.47;5189089;28;20537;-79
2022/03/13 11:26:51;;;;;;;1.98;1.88;;;;;;;12.52;39.31;100788.53;5186029;28;20030;-79
2022/03/13 11:29:43;;;;;;;1.65;1.55;;;;;;;12.70;38.89;100770.38;5169340;28;20042;-79
2022/03/13 11:32:34;;;;;;;4.70;1.60;;;;;;;12.74;39.48;100769.38;5164747;28;20124;-79
2022/03/13 11:35:13;;;;;;;1.83;1.42;;;;;;;12.79;38.71;100762.16;5175940;28;20574;-79
2022/03/13 11:37:51;;;;;;;2.25;2.15;;;;;;;12.91;38.32;100756.47;5180945;28;20034;-79
2022/03/13 11:40:32;;;;;;;2.05;1.95;;;;;;;12.98;39.09;100750.97;5175466;28;20437;-78
2022/03/13 11:43:19;;;;;;;1.05;1.05;;;;;;;13.09;39.76;100754.06;5164903;28;20078;-78
2022/03/13 11:45:56;;;;;;;0.90;0.90;;;;;;;13.22;39.51;100743.94;5182331;28;20042;-79
2022/03/13 11:48:32;;;;;;;2.08;1.83;;;;;;;13.24;38.48;100736.81;5168907;28;20319;-79
2022/03/13 11:51:04;;;;;;;20.05;2.47;;;;;;;13.35;39.03;100729.38;5187319;28;20052;-79
2022/03/13 11:53:42;;;;;;;2.75;2.55;;;;;;;13.48;38.29;100723.63;5188112;28;20042;-80